Time;durP1;ratioP1;P1;durP2;ratioP2;P2;SDS_P1;SDS_P2;PMS_P1;PMS_P2;Temp;Humidity;BMP_temperature;BMP_pressure;BME280_temperature;BME280_humidity;BME280_pressure;Samples;Min_cycle;Max_cycle;Signal;HPM_P1;HPM_P2
2022/08/24 00:02:11;;;;;;;1108.27;999.90;;;25.30;99.90;;;;;;5044975;28;20826;-80
2022/08/24 00:04:38;;;;;;;1109.20;999.90;;;25.30;99.90;;;;;;5050373;28;20948;-79
2022/08/24 00:07:07;;;;;;;1105.13;999.90;;;25.30;99.90;;;;;;5051146;28;20458;-80
2022/08/24 00:09:35;;;;;;;1109.27;999.90;;;25.30;99.90;;;;;;5041677;28;20894;-79
2022/08/24 00:12:03;;;;;;;1107.27;999.90;;;25.20;99.90;;;;;;5053536;28;20473;-80
2022/08/24 00:14:31;;;;;;;1100.93;999.90;;;25.20;99.90;;;;;;5048993;28;20461;-80
2022/08/24 00:16:58;;;;;;;1098.78;998.38;;;25.20;99.90;;;;;;5045423;28;20468;-80
2022/08/24 00:19:26;;;;;;;1106.43;999.90;;;25.20;99.90;;;;;;5048454;28;20591;-79
2022/08/24 00:21:52;;;;;;;1101.87;999.90;;;25.20;99.90;;;;;;5045362;28;20472;-80
2022/08/24 00:24:20;;;;;;;1101.53;999.90;;;25.20;99.90;;;;;;5044355;28;20460;-79
2022/08/24 00:26:48;;;;;;;1088.80;996.17;;;25.10;99.90;;;;;;5049011;28;20458;-79
2022/08/24 00:29:16;;;;;;;1099.23;999.90;;;25.10;99.90;;;;;;5043188;28;20486;-80
2022/08/24 00:31:43;;;;;;;1090.10;996.83;;;25.10;99.90;;;;;;5044184;28;20576;-80
2022/08/24 00:34:12;;;;;;;1090.50;998.10;;;25.10;99.90;;;;;;5049426;28;20458;-80
2022/08/24 00:36:40;;;;;;;1107.30;999.90;;;25.10;99.90;;;;;;5048469;28;20886;-80
2022/08/24 00:39:08;;;;;;;1096.00;999.27;;;25.10;99.90;;;;;;5045991;28;20465;-79
2022/08/24 00:41:38;;;;;;;1091.43;997.87;;;25.00;99.90;;;;;;5052263;28;20478;-81
2022/08/24 00:44:06;;;;;;;1103.97;999.90;;;25.00;99.90;;;;;;5044644;28;20487;-79
2022/08/24 00:46:42;;;;;;;1079.70;988.90;;;25.00;99.90;;;;;;5041184;28;20436;-80
2022/08/24 00:49:18;;;;;;;1084.47;992.58;;;25.00;99.90;;;;;;5042757;28;20461;-80
2022/08/24 00:51:54;;;;;;;1085.10;993.87;;;25.00;99.90;;;;;;5047422;28;20214;-80
2022/08/24 00:54:25;;;;;;;1086.20;994.57;;;25.00;99.90;;;;;;5042850;28;20940;-81
2022/08/24 00:56:56;;;;;;;1085.17;994.13;;;25.00;99.90;;;;;;5049098;28;20452;-81
2022/08/24 00:59:28;;;;;;;1085.27;994.60;;;24.90;99.90;;;;;;5046474;28;20453;-81
2022/08/24 01:01:57;;;;;;;1093.20;997.63;;;24.90;99.90;;;;;;5041284;28;20461;-80
2022/08/24 01:04:29;;;;;;;1093.13;997.78;;;24.90;99.90;;;;;;5048548;28;20439;-79
2022/08/24 01:06:57;;;;;;;1087.80;995.73;;;24.90;99.90;;;;;;5048988;28;20199;-80
2022/08/24 01:09:24;;;;;;;1089.77;996.97;;;24.80;99.90;;;;;;5043875;28;20875;-80
2022/08/24 01:11:52;;;;;;;1096.17;999.33;;;24.80;99.90;;;;;;5042371;28;20485;-81
2022/08/24 01:14:20;;;;;;;1095.30;998.55;;;24.80;99.90;;;;;;5044467;28;20554;-80
2022/08/24 01:19:37;;;;;;;1089.65;996.20;;;24.80;99.90;;;;;;5050595;28;20256;-79
2022/08/24 01:22:16;;;;;;;1084.50;993.80;;;24.80;99.90;;;;;;5039816;28;20738;-81
2022/08/24 01:24:45;;;;;;;1094.90;997.65;;;24.80;99.90;;;;;;5044988;28;20816;-79
2022/08/24 01:27:13;;;;;;;1083.22;991.88;;;24.70;99.90;;;;;;5038013;28;20196;-80
2022/08/24 01:29:41;;;;;;;1092.15;997.35;;;24.70;99.90;;;;;;5036810;28;20195;-80
2022/08/24 01:32:08;;;;;;;1087.75;995.08;;;24.70;99.90;;;;;;5044396;28;20717;-80
2022/08/24 01:34:36;;;;;;;1078.20;987.73;;;24.70;99.90;;;;;;5047156;28;20239;-79
2022/08/24 01:37:03;;;;;;;1084.20;993.23;;;24.70;99.90;;;;;;5035016;28;21004;-80
2022/08/24 01:39:33;;;;;;;1091.75;997.38;;;24.60;99.90;;;;;;5044474;28;20448;-80
2022/08/24 01:42:02;;;;;;;1087.05;994.80;;;24.70;99.90;;;;;;5039312;28;20654;-79
2022/08/24 01:44:32;;;;;;;1078.83;988.30;;;24.60;99.90;;;;;;5044734;28;20204;-80
2022/08/24 01:47:00;;;;;;;1086.28;994.22;;;24.60;99.90;;;;;;5039284;28;20436;-80
2022/08/24 01:49:29;;;;;;;1068.20;978.05;;;24.60;99.90;;;;;;5049462;28;20199;-80
2022/08/24 01:51:55;;;;;;;1083.20;992.43;;;24.60;99.90;;;;;;5040729;28;20216;-80
2022/08/24 01:54:22;;;;;;;1091.60;998.00;;;24.60;99.90;;;;;;5038867;28;20998;-80
2022/08/24 01:56:49;;;;;;;1090.70;996.75;;;24.60;99.90;;;;;;5038906;28;20458;-80
2022/08/24 01:59:21;;;;;;;1076.82;986.28;;;24.60;99.90;;;;;;5048972;28;20212;-79
2022/08/24 02:01:52;;;;;;;1088.72;995.80;;;24.50;99.90;;;;;;5037827;28;20520;-80
2022/08/24 02:04:20;;;;;;;1065.10;975.08;;;24.50;99.90;;;;;;5047445;28;20204;-80
2022/08/24 02:06:47;;;;;;;1064.55;974.50;;;24.50;99.90;;;;;;5037910;28;20235;-80
2022/08/24 02:09:13;;;;;;;1073.00;982.67;;;24.50;99.90;;;;;;5040066;28;20204;-80
2022/08/24 02:11:41;;;;;;;1080.30;989.67;;;24.50;99.90;;;;;;5040139;28;20203;-80
2022/08/24 02:14:08;;;;;;;1075.32;984.75;;;24.50;99.90;;;;;;5042021;28;20681;-80
2022/08/24 02:16:37;;;;;;;1073.40;982.95;;;24.40;99.90;;;;;;5039663;28;20570;-80
2022/08/24 02:19:04;;;;;;;1071.50;981.28;;;24.40;99.90;;;;;;5037767;28;20770;-80
2022/08/24 02:21:30;;;;;;;1070.60;980.38;;;24.40;99.90;;;;;;5045028;28;20206;-80
2022/08/24 02:23:57;;;;;;;1066.82;976.70;;;24.40;99.90;;;;;;5047964;28;20203;-80
2022/08/24 02:26:24;;;;;;;1079.95;989.40;;;24.40;99.90;;;;;;5042358;28;20235;-80
2022/08/24 02:28:51;;;;;;;1088.25;995.45;;;24.40;99.90;;;;;;5036685;28;20486;-80
2022/08/24 02:31:18;;;;;;;1064.45;974.45;;;24.30;99.90;;;;;;5036241;28;20202;-79
2022/08/24 02:33:46;;;;;;;1075.70;985.25;;;24.30;99.90;;;;;;5050331;28;20266;-80
2022/08/24 02:36:14;;;;;;;1075.95;985.63;;;24.30;99.90;;;;;;5040721;28;20204;-81
2022/08/24 02:38:42;;;;;;;1072.28;982.25;;;24.30;99.90;;;;;;5037981;28;20191;-80
2022/08/24 02:41:11;;;;;;;1059.03;969.63;;;24.30;99.90;;;;;;5044861;28;20737;-80
2022/08/24 02:43:37;;;;;;;1054.30;964.97;;;24.30;99.90;;;;;;5046042;28;20205;-80
2022/08/24 02:46:05;;;;;;;1075.05;984.63;;;24.30;99.90;;;;;;5043913;28;20670;-81
2022/08/24 02:48:32;;;;;;;1069.40;979.28;;;24.20;99.90;;;;;;5046965;28;20654;-81
2022/08/24 02:51:00;;;;;;;1075.13;984.63;;;24.20;99.90;;;;;;5038661;28;20199;-81
2022/08/24 02:53:26;;;;;;;1068.32;978.50;;;24.20;99.90;;;;;;5044989;28;20218;-81
2022/08/24 02:55:53;;;;;;;1062.25;972.40;;;24.20;99.90;;;;;;5048279;28;20199;-81
2022/08/24 02:58:20;;;;;;;1058.15;968.47;;;24.20;99.90;;;;;;5050804;28;20202;-81
2022/08/24 03:00:48;;;;;;;1067.95;977.60;;;24.20;99.90;;;;;;5043151;28;20571;-80
2022/08/24 03:03:15;;;;;;;1072.95;982.67;;;24.20;99.90;;;;;;5046295;28;20237;-80
2022/08/24 03:05:42;;;;;;;1060.53;970.83;;;24.10;99.90;;;;;;5042194;28;20643;-80
2022/08/24 03:08:10;;;;;;;1065.15;975.20;;;24.10;99.90;;;;;;5042250;28;20196;-80
2022/08/24 03:10:37;;;;;;;1066.32;976.10;;;24.10;99.90;;;;;;5039419;28;20207;-80
2022/08/24 03:13:04;;;;;;;1063.10;973.20;;;24.10;99.90;;;;;;5041755;28;20228;-80
2022/08/24 03:15:31;;;;;;;1049.65;960.33;;;24.10;99.90;;;;;;5040447;28;20200;-80
2022/08/24 03:17:58;;;;;;;1056.20;966.65;;;24.00;99.90;;;;;;5045170;28;20195;-80
2022/08/24 03:20:25;;;;;;;1058.78;968.83;;;24.10;99.90;;;;;;5039614;28;20218;-80
2022/08/24 03:22:53;;;;;;;1058.75;969.03;;;24.00;99.90;;;;;;5041088;28;20570;-79
2022/08/24 03:25:23;;;;;;;1069.53;979.45;;;24.00;99.90;;;;;;5049380;28;20647;-80
2022/08/24 03:27:51;;;;;;;1053.20;963.58;;;24.00;99.90;;;;;;5061350;28;20292;-80
2022/08/24 03:30:18;;;;;;;1051.15;961.72;;;24.00;99.90;;;;;;5050079;28;20203;-79
2022/08/24 03:32:45;;;;;;;1056.60;966.78;;;23.90;99.90;;;;;;5044265;28;20219;-79
2022/08/24 03:35:13;;;;;;;1065.82;975.80;;;23.90;99.90;;;;;;5046799;28;20201;-80
2022/08/24 03:37:40;;;;;;;1051.32;961.70;;;23.90;99.90;;;;;;5046372;28;20241;-80
2022/08/24 03:40:09;;;;;;;1066.95;976.78;;;23.90;99.90;;;;;;5054123;28;20199;-80
2022/08/24 03:42:38;;;;;;;1048.68;959.28;;;23.90;99.90;;;;;;5043398;28;20215;-80
2022/08/24 03:45:05;;;;;;;1060.82;971.10;;;23.90;99.90;;;;;;5040435;28;20206;-80
2022/08/24 03:47:32;;;;;;;1055.88;966.25;;;23.90;99.90;;;;;;5049745;28;20199;-80
2022/08/24 03:49:59;;;;;;;1053.13;963.70;;;23.90;99.90;;;;;;5040027;28;20195;-80
2022/08/24 03:52:26;;;;;;;1052.47;962.85;;;23.80;99.90;;;;;;5051597;28;20222;-80
2022/08/24 03:54:53;;;;;;;1052.05;962.22;;;23.80;99.90;;;;;;5042327;28;20658;-81
2022/08/24 03:57:19;;;;;;;1053.10;963.55;;;23.80;99.90;;;;;;5039127;28;20203;-80
2022/08/24 03:59:48;;;;;;;1049.72;960.17;;;23.80;99.90;;;;;;5036083;28;20566;-80
2022/08/24 04:02:15;;;;;;;1065.60;975.25;;;23.80;99.90;;;;;;5034165;28;20199;-80
2022/08/24 04:04:41;;;;;;;1049.88;960.40;;;23.80;99.90;;;;;;5042648;28;20199;-80
2022/08/24 04:07:08;;;;;;;1074.38;983.95;;;23.80;99.90;;;;;;5040206;28;20215;-81
2022/08/24 04:09:35;;;;;;;1050.45;960.78;;;23.80;99.90;;;;;;5044610;28;20206;-80
2022/08/24 04:12:02;;;;;;;1055.40;965.55;;;23.70;99.90;;;;;;5035974;28;20204;-80
2022/08/24 04:14:28;;;;;;;1046.55;957.30;;;23.70;99.90;;;;;;5048749;28;20228;-81
2022/08/24 04:16:56;;;;;;;1034.90;945.65;;;23.70;99.90;;;;;;5045080;28;20206;-80
2022/08/24 04:19:23;;;;;;;1058.00;968.08;;;23.70;99.90;;;;;;5040020;28;20674;-80
2022/08/24 04:21:50;;;;;;;1054.35;964.63;;;23.60;99.90;;;;;;5038251;28;20203;-80
2022/08/24 04:24:17;;;;;;;1054.25;964.53;;;23.70;99.90;;;;;;5049506;28;20194;-79
2022/08/24 04:26:44;;;;;;;1062.50;972.28;;;23.60;99.90;;;;;;5038145;28;20286;-81
2022/08/24 04:29:12;;;;;;;1044.18;954.88;;;23.60;99.90;;;;;;5041944;28;20200;-80
2022/08/24 04:31:41;;;;;;;1047.57;958.35;;;23.60;99.90;;;;;;5040407;28;20195;-80
2022/08/24 04:34:11;;;;;;;1047.68;958.10;;;23.60;99.90;;;;;;5058425;28;20307;-80
2022/08/24 04:36:40;;;;;;;1048.07;958.67;;;23.50;99.90;;;;;;5043857;28;20211;-80
2022/08/24 04:39:07;;;;;;;1056.85;967.22;;;23.50;99.90;;;;;;5041677;28;20199;-80
2022/08/24 04:41:34;;;;;;;1043.40;953.90;;;23.50;99.90;;;;;;5037759;28;20214;-80
2022/08/24 04:44:01;;;;;;;1042.80;953.65;;;23.50;99.90;;;;;;5049277;28;20662;-81
2022/08/24 04:46:28;;;;;;;1043.47;954.05;;;23.50;99.90;;;;;;5041559;28;20654;-79
2022/08/24 04:48:55;;;;;;;1029.60;940.75;;;23.50;99.90;;;;;;5046398;28;20287;-80
2022/08/24 04:51:23;;;;;;;1044.43;954.92;;;23.50;99.90;;;;;;5047526;28;20207;-80
2022/08/24 04:53:51;;;;;;;1049.63;960.05;;;23.50;99.90;;;;;;5050042;28;20215;-79
2022/08/24 04:56:20;;;;;;;1037.03;947.90;;;23.50;99.90;;;;;;5052968;28;20523;-80
2022/08/24 04:58:46;;;;;;;1036.22;947.30;;;23.40;99.90;;;;;;5049982;28;20203;-80
2022/08/24 05:01:16;;;;;;;1052.10;962.33;;;23.40;99.90;;;;;;5041193;28;20229;-79
2022/08/24 05:03:44;;;;;;;1043.90;954.40;;;23.40;99.90;;;;;;5049769;28;20277;-78
2022/08/24 05:06:12;;;;;;;1049.95;959.97;;;23.40;99.90;;;;;;5044016;28;20203;-77
2022/08/24 05:08:40;;;;;;;1048.97;959.50;;;23.40;99.90;;;;;;5046465;28;20420;-78
2022/08/24 05:11:07;;;;;;;1038.88;949.85;;;23.40;99.90;;;;;;5043475;28;20539;-79
2022/08/24 05:13:34;;;;;;;1043.40;954.17;;;23.40;99.90;;;;;;5046131;28;20218;-80
2022/08/24 05:16:01;;;;;;;1035.70;946.70;;;23.40;99.90;;;;;;5046115;28;20195;-79
2022/08/24 05:18:28;;;;;;;1034.68;945.75;;;23.40;99.90;;;;;;5047550;28;20205;-79
2022/08/24 05:20:56;;;;;;;1034.28;945.25;;;23.40;99.90;;;;;;5041589;28;20282;-80
2022/08/24 05:23:23;;;;;;;1039.47;950.22;;;23.40;99.90;;;;;;5049880;28;20206;-78
2022/08/24 05:25:51;;;;;;;1040.18;950.90;;;23.40;99.90;;;;;;5044646;28;20199;-78
2022/08/24 05:28:18;;;;;;;1028.70;940.03;;;23.30;99.90;;;;;;5035591;28;20245;-78
2022/08/24 05:30:45;;;;;;;1033.80;944.90;;;23.30;99.90;;;;;;5040465;28;20204;-78
2022/08/24 05:33:11;;;;;;;1038.43;949.28;;;23.30;99.90;;;;;;5039595;28;20214;-79
2022/08/24 05:35:39;;;;;;;1035.50;946.42;;;23.30;99.90;;;;;;5037088;28;20662;-78
2022/08/24 05:38:08;;;;;;;1040.22;950.90;;;23.30;99.90;;;;;;5037696;28;20199;-79
2022/08/24 05:40:37;;;;;;;1019.50;930.72;;;23.30;99.90;;;;;;5051795;28;20191;-78
2022/08/24 05:43:05;;;;;;;1030.82;941.88;;;23.30;99.90;;;;;;5049903;28;20199;-78
2022/08/24 05:45:32;;;;;;;1036.95;947.90;;;23.30;99.90;;;;;;5037231;28;20203;-78
2022/08/24 05:47:59;;;;;;;1043.50;954.08;;;23.30;99.90;;;;;;5034570;28;20208;-78
2022/08/24 05:50:25;;;;;;;1027.60;938.65;;;23.40;99.90;;;;;;5038300;28;20208;-78
2022/08/24 05:52:52;;;;;;;1026.43;937.80;;;23.40;99.90;;;;;;5048082;28;20199;-78
2022/08/24 05:55:19;;;;;;;1047.70;958.20;;;23.40;99.90;;;;;;5035680;28;20210;-77
2022/08/24 05:57:46;;;;;;;1055.15;965.38;;;23.50;99.90;;;;;;5039307;28;20202;-77
2022/08/24 06:00:15;;;;;;;1038.05;948.90;;;23.70;99.90;;;;;;5042186;28;20669;-78
2022/08/24 06:02:42;;;;;;;1052.80;963.17;;;24.00;99.90;;;;;;5039971;28;20825;-76
2022/08/24 06:05:10;;;;;;;1054.80;965.03;;;24.20;99.90;;;;;;5040391;28;20209;-78
2022/08/24 06:07:37;;;;;;;1059.60;969.75;;;24.50;99.90;;;;;;5040274;28;20203;-79
2022/08/24 06:10:04;;;;;;;1071.63;981.23;;;24.70;99.90;;;;;;5047773;28;20602;-77
2022/08/24 06:12:30;;;;;;;1084.77;993.70;;;24.90;99.90;;;;;;5047015;28;20431;-78
2022/08/24 06:14:57;;;;;;;1084.27;993.37;;;25.10;99.90;;;;;;5041291;28;20478;-78
2022/08/24 06:17:25;;;;;;;1092.13;997.83;;;25.30;99.90;;;;;;5047485;28;20953;-77
2022/08/24 06:19:52;;;;;;;1103.90;999.90;;;25.50;99.90;;;;;;5045875;28;20484;-77
2022/08/24 06:22:19;;;;;;;1119.93;999.90;;;25.70;99.90;;;;;;5048164;28;20461;-77
2022/08/24 06:27:30;;;;;;;1110.77;999.90;;;26.00;99.90;;;;;;5044433;28;20441;-78
2022/08/24 06:29:59;;;;;;;1128.80;999.90;;;26.10;99.90;;;;;;5043897;28;20545;-77
2022/08/24 06:32:28;;;;;;;1139.40;999.90;;;26.30;99.90;;;;;;5036864;28;20841;-77
2022/08/24 06:34:57;;;;;;;1135.20;999.90;;;26.40;99.60;;;;;;5046964;28;20485;-78
2022/08/24 06:37:26;;;;;;;1126.80;999.90;;;26.40;99.20;;;;;;5041502;28;20459;-77
2022/08/24 06:39:53;;;;;;;1129.60;999.90;;;26.50;99.00;;;;;;5048505;28;20481;-77
2022/08/24 06:42:20;;;;;;;1147.83;999.90;;;26.60;98.70;;;;;;5044399;28;20825;-78
2022/08/24 06:44:47;;;;;;;1148.87;999.90;;;26.60;98.50;;;;;;5041690;28;20462;-79
2022/08/24 06:47:14;;;;;;;1125.10;999.90;;;26.50;98.40;;;;;;5044315;28;20450;-78
2022/08/24 06:49:42;;;;;;;1139.17;999.90;;;26.40;98.50;;;;;;5039582;28;20453;-78
2022/08/24 06:52:10;;;;;;;1124.23;999.90;;;26.30;98.70;;;;;;5038752;28;20792;-79
2022/08/24 06:54:37;;;;;;;1126.23;999.90;;;26.10;99.00;;;;;;5046577;28;20999;-78
2022/08/24 06:57:05;;;;;;;1118.73;999.90;;;26.00;99.30;;;;;;5042508;28;20454;-77
2022/08/24 06:59:32;;;;;;;1117.00;999.90;;;25.90;99.60;;;;;;5035112;28;20459;-77
2022/08/24 07:01:59;;;;;;;1118.47;999.90;;;25.80;99.90;;;;;;5045696;28;20503;-77
2022/08/24 07:04:27;;;;;;;1108.90;999.90;;;25.70;99.90;;;;;;5043855;28;20458;-78
2022/08/24 07:06:56;;;;;;;1105.10;999.90;;;25.70;99.90;;;;;;5046054;28;20451;-78
2022/08/24 07:09:23;;;;;;;1104.07;999.90;;;25.70;99.90;;;;;;5042222;28;20461;-80
2022/08/24 07:11:50;;;;;;;1099.27;999.90;;;25.70;99.90;;;;;;5046690;28;20967;-78
2022/08/24 07:14:17;;;;;;;1108.80;999.90;;;25.80;99.90;;;;;;5042107;28;20473;-77
2022/08/24 07:16:44;;;;;;;1115.13;999.90;;;25.80;99.90;;;;;;5048229;28;20462;-77
2022/08/24 07:19:11;;;;;;;1117.77;999.90;;;25.80;99.90;;;;;;5046742;28;20485;-76
2022/08/24 07:21:37;;;;;;;1103.73;999.90;;;25.90;99.90;;;;;;5044359;28;20438;-78
2022/08/24 07:24:06;;;;;;;1117.60;999.90;;;26.00;99.70;;;;;;5047104;28;20452;-77
2022/08/24 07:26:33;;;;;;;1116.80;999.90;;;26.10;99.40;;;;;;5041492;28;20450;-77
2022/08/24 07:29:05;;;;;;;1127.70;999.90;;;26.20;99.10;;;;;;5048460;28;20480;-79
2022/08/24 07:31:32;;;;;;;1120.40;999.90;;;26.30;98.80;;;;;;5047272;28;20540;-77
2022/08/24 07:33:59;;;;;;;1133.73;999.90;;;26.40;98.70;;;;;;5044543;28;20864;-78
2022/08/24 07:36:25;;;;;;;1122.20;999.90;;;26.40;98.50;;;;;;5043945;28;20464;-76
2022/08/24 07:38:53;;;;;;;1136.73;999.90;;;26.40;98.40;;;;;;5042420;28;20466;-77
2022/08/24 07:41:24;;;;;;;1143.33;999.90;;;26.60;98.10;;;;;;5051647;28;20545;-78
2022/08/24 07:43:51;;;;;;;1148.10;999.90;;;26.70;97.70;;;;;;5046235;28;20477;-77
2022/08/24 07:46:18;;;;;;;1143.33;999.90;;;26.80;97.40;;;;;;5052843;28;20465;-77
2022/08/24 07:48:45;;;;;;;1134.30;999.90;;;26.90;97.00;;;;;;5044182;28;20454;-78
2022/08/24 07:51:14;;;;;;;1148.00;999.90;;;26.90;96.80;;;;;;5044931;28;20461;-77
2022/08/24 07:53:41;;;;;;;1140.40;999.90;;;26.90;96.80;;;;;;5051363;28;20983;-78
2022/08/24 07:56:09;;;;;;;1135.87;999.90;;;26.80;97.00;;;;;;5048779;28;20542;-78
2022/08/24 07:58:37;;;;;;;1132.57;999.90;;;26.60;97.10;;;;;;5048942;28;20840;-77
2022/08/24 08:01:04;;;;;;;1136.97;999.90;;;26.60;97.40;;;;;;5051407;28;20850;-78
2022/08/24 08:03:32;;;;;;;1141.17;999.90;;;26.50;97.50;;;;;;5047530;28;20944;-78
2022/08/24 08:06:02;;;;;;;1140.63;999.90;;;26.50;97.60;;;;;;5046741;28;20453;-77
2022/08/24 08:08:31;;;;;;;1123.73;999.90;;;26.50;97.60;;;;;;5049277;28;20461;-77
2022/08/24 08:10:58;;;;;;;1134.07;999.90;;;26.50;97.60;;;;;;5041511;28;20458;-78
2022/08/24 08:13:24;;;;;;;1136.03;999.90;;;26.40;97.60;;;;;;5046617;28;20458;-78
2022/08/24 08:15:52;;;;;;;1139.33;999.90;;;26.40;97.50;;;;;;5048017;28;20461;-78
2022/08/24 08:18:19;;;;;;;1140.23;999.90;;;26.50;97.60;;;;;;5044174;28;20469;-77
2022/08/24 08:20:47;;;;;;;1128.70;999.90;;;26.50;97.50;;;;;;5037697;28;20468;-77
2022/08/24 08:26:00;;;;;;;1149.20;999.90;;;26.70;97.00;;;;;;5040351;28;21005;-77
2022/08/24 08:28:31;;;;;;;1148.70;999.90;;;26.90;96.80;;;;;;5046061;28;20462;-77
2022/08/24 08:31:00;;;;;;;1141.73;999.90;;;27.00;96.30;;;;;;5039494;28;20460;-77
2022/08/24 08:33:27;;;;;;;1158.67;999.90;;;27.20;96.00;;;;;;5040828;28;20849;-77
2022/08/24 08:36:02;;;;;;;1157.10;999.90;;;27.30;95.70;;;;;;5046464;28;20915;-77
2022/08/24 08:38:29;;;;;;;1162.00;999.90;;;27.40;95.20;;;;;;5050885;28;20999;-78
2022/08/24 08:41:18;;;;;;;1163.13;999.90;;;27.50;94.90;;;;;;5052064;28;20786;-78
2022/08/24 08:43:48;;;;;;;1165.63;999.90;;;27.70;94.60;;;;;;5052124;28;20477;-79
2022/08/24 08:46:30;;;;;;;1177.17;999.90;;;27.80;94.30;;;;;;5036517;28;20520;-78
2022/08/24 08:49:18;;;;;;;1160.33;999.90;;;27.80;94.00;;;;;;5049169;28;20828;-78
2022/08/24 08:52:07;;;;;;;1168.77;999.90;;;27.90;93.90;;;;;;5033267;28;20450;-78
2022/08/24 08:54:48;;;;;;;1171.73;999.90;;;27.90;93.60;;;;;;5053479;28;20805;-77
2022/08/24 08:57:31;;;;;;;1179.90;999.90;;;27.90;93.50;;;;;;5055395;28;20821;-78
2022/08/24 09:00:09;;;;;;;1189.17;999.90;;;28.00;93.30;;;;;;5056246;28;20960;-78
2022/08/24 09:03:16;;;;;;;1173.50;999.90;;;28.00;92.90;;;;;;5040976;28;20802;-78
2022/08/24 09:06:05;;;;;;;1182.13;999.90;;;28.00;92.90;;;;;;5041869;28;20828;-78
2022/08/24 09:08:56;;;;;;;1172.43;999.90;;;28.00;92.70;;;;;;5052396;28;20525;-79
2022/08/24 09:11:31;;;;;;;1179.67;999.90;;;28.10;92.90;;;;;;5049846;28;20468;-77
2022/08/24 09:14:15;;;;;;;1179.80;999.90;;;28.10;92.60;;;;;;5039029;28;20522;-78
2022/08/24 09:17:01;;;;;;;1171.03;999.90;;;28.10;92.50;;;;;;5045144;28;20480;-78
2022/08/24 09:19:43;;;;;;;1182.50;999.90;;;28.00;92.40;;;;;;5047439;28;20478;-78
2022/08/24 09:22:14;;;;;;;1174.77;999.90;;;28.10;92.30;;;;;;5050145;28;20963;-77
2022/08/24 09:24:58;;;;;;;1173.73;999.90;;;28.10;92.30;;;;;;5038914;28;20442;-78
2022/08/24 09:27:40;;;;;;;1186.13;999.90;;;28.10;92.30;;;;;;5038576;28;20783;-78
2022/08/24 09:30:11;;;;;;;1185.47;999.90;;;28.00;92.20;;;;;;5040689;28;20465;-79
2022/08/24 09:32:57;;;;;;;1179.83;999.90;;;28.00;92.20;;;;;;5045205;28;20822;-77
2022/08/24 09:35:34;;;;;;;1185.07;999.90;;;28.00;92.20;;;;;;5033906;28;20470;-78
2022/08/24 09:38:13;;;;;;;1177.13;999.90;;;28.00;91.90;;;;;;5041097;28;20465;-78
2022/08/24 09:41:01;;;;;;;1173.70;999.90;;;28.00;91.80;;;;;;5049391;28;20452;-78
2022/08/24 09:43:57;;;;;;;1183.50;999.90;;;28.00;91.80;;;;;;5042317;28;20477;-78
2022/08/24 09:47:00;;;;;;;1176.87;999.90;;;28.00;92.10;;;;;;5030390;28;20446;-80
2022/08/24 09:50:04;;;;;;;1167.40;999.90;;;28.00;92.10;;;;;;5049114;28;20436;-81
2022/08/24 09:52:58;;;;;;;1167.80;999.90;;;28.00;91.60;;;;;;5047044;28;20434;-80
2022/08/24 09:55:58;;;;;;;1166.40;999.90;;;28.00;91.90;;;;;;5047888;28;20469;-80
2022/08/24 09:58:36;;;;;;;1162.77;999.90;;;28.00;92.00;;;;;;5042412;28;20461;-81
2022/08/24 10:01:10;;;;;;;1165.33;999.90;;;27.90;91.70;;;;;;5034923;28;20460;-80
2022/08/24 10:03:51;;;;;;;1173.20;999.90;;;28.00;91.70;;;;;;5048375;28;20457;-80
2022/08/24 10:06:31;;;;;;;1173.93;999.90;;;27.90;91.30;;;;;;5040922;28;20446;-80
2022/08/24 10:09:11;;;;;;;1178.23;999.90;;;27.90;91.70;;;;;;5046628;28;20471;-80
2022/08/24 10:11:45;;;;;;;1176.73;999.90;;;27.90;91.70;;;;;;5044781;28;20469;-80
2022/08/24 10:14:18;;;;;;;1180.30;999.90;;;27.90;91.50;;;;;;5041158;28;20512;-79
2022/08/24 10:16:54;;;;;;;1175.73;999.90;;;27.90;91.80;;;;;;5044590;28;20462;-78
2022/08/24 10:19:38;;;;;;;1176.40;999.90;;;27.90;91.40;;;;;;5045426;28;21007;-81
2022/08/24 10:22:15;;;;;;;1170.43;999.90;;;27.90;91.50;;;;;;5037879;28;20520;-79
2022/08/24 10:25:00;;;;;;;1175.90;999.90;;;27.90;91.50;;;;;;5046855;28;20445;-78
2022/08/24 10:27:43;;;;;;;1165.90;999.90;;;27.90;91.60;;;;;;5035753;28;20457;-78
2022/08/24 10:30:39;;;;;;;1170.90;999.90;;;27.90;91.70;;;;;;5039883;28;20465;-79
2022/08/24 10:33:19;;;;;;;1172.50;999.90;;;27.80;91.70;;;;;;5036237;28;20489;-77
2022/08/24 10:36:03;;;;;;;1171.10;999.90;;;27.80;91.70;;;;;;5046423;28;20472;-79
2022/08/24 10:42:02;;;;;;;1169.07;999.90;;;27.80;91.60;;;;;;5053056;28;20432;-80
2022/08/24 10:44:46;;;;;;;1170.00;999.90;;;27.80;91.20;;;;;;5044085;28;20461;-78
2022/08/24 10:47:21;;;;;;;1167.27;999.90;;;27.80;91.20;;;;;;5039269;28;20504;-80
2022/08/24 10:50:23;;;;;;;1172.90;999.90;;;27.80;91.10;;;;;;5034588;28;21067;-79
2022/08/24 10:53:08;;;;;;;1160.63;999.90;;;27.80;91.20;;;;;;5040057;28;20457;-80
2022/08/24 10:55:36;;;;;;;1181.17;999.90;;;27.80;91.00;;;;;;5034582;28;20474;-79
2022/08/24 10:58:29;;;;;;;1169.80;999.90;;;27.70;91.20;;;;;;5035476;28;20552;-79
2022/08/24 11:01:03;;;;;;;1167.40;999.90;;;27.70;90.80;;;;;;5043737;28;20921;-79
2022/08/24 11:03:31;;;;;;;1164.13;999.90;;;27.80;90.90;;;;;;5039672;28;20457;-82
2022/08/24 11:05:57;;;;;;;1175.17;999.90;;;27.70;91.30;;;;;;5038411;28;20459;-80
2022/08/24 11:08:26;;;;;;;1180.80;999.90;;;27.70;91.20;;;;;;5039707;28;20495;-80
2022/08/24 11:11:06;;;;;;;1175.13;999.90;;;27.70;91.10;;;;;;5046475;28;20466;-82
2022/08/24 11:13:52;;;;;;;1175.97;999.90;;;27.70;90.80;;;;;;5041643;28;20454;-80
2022/08/24 11:16:24;;;;;;;1183.77;999.90;;;27.70;91.10;;;;;;5034690;28;20830;-80
2022/08/24 11:18:53;;;;;;;1154.63;999.90;;;27.80;91.10;;;;;;5039658;28;20482;-80
2022/08/24 11:21:41;;;;;;;1167.40;999.90;;;27.70;91.10;;;;;;5044739;28;20457;-80
2022/08/24 11:24:11;;;;;;;1156.87;999.90;;;27.70;91.10;;;;;;5036211;28;20996;-82
2022/08/24 11:26:55;;;;;;;1169.83;999.90;;;27.70;90.90;;;;;;5039466;28;20814;-79
2022/08/24 11:29:30;;;;;;;1164.50;999.90;;;27.70;90.80;;;;;;5041849;28;20454;-80
2022/08/24 11:31:57;;;;;;;1169.33;999.90;;;27.70;90.40;;;;;;5042559;28;20468;-80
2022/08/24 11:34:33;;;;;;;1159.97;999.90;;;27.80;90.80;;;;;;5040069;28;20477;-80
2022/08/24 11:37:00;;;;;;;1176.23;999.90;;;27.70;90.40;;;;;;5046190;28;20463;-80
2022/08/24 11:39:32;;;;;;;1161.30;999.90;;;27.80;90.80;;;;;;5046490;28;20549;-79
2022/08/24 11:42:03;;;;;;;1165.50;999.90;;;27.70;90.70;;;;;;5052798;28;20449;-81
2022/08/24 11:44:49;;;;;;;1167.13;999.90;;;27.80;90.80;;;;;;5043679;28;20468;-81
2022/08/24 11:47:41;;;;;;;1154.83;999.90;;;27.80;90.70;;;;;;5048765;28;20956;-80
2022/08/24 11:50:22;;;;;;;1168.93;999.90;;;27.80;90.60;;;;;;5043758;28;20786;-79
2022/08/24 11:53:08;;;;;;;1162.47;999.90;;;27.80;90.50;;;;;;5052103;28;20457;-79
2022/08/24 11:55:41;;;;;;;1170.50;999.90;;;27.70;90.10;;;;;;5045488;28;20481;-80
2022/08/24 11:58:13;;;;;;;1162.77;999.90;;;27.70;90.20;;;;;;5047304;28;20470;-81
2022/08/24 12:00:47;;;;;;;1157.10;999.90;;;27.70;90.30;;;;;;5045484;28;20460;-79
2022/08/24 12:03:27;;;;;;;1167.73;999.90;;;27.70;90.20;;;;;;5033485;28;20462;-82
2022/08/24 12:06:05;;;;;;;1152.30;999.90;;;27.80;90.30;;;;;;5044757;28;20450;-80
2022/08/24 12:08:39;;;;;;;1155.47;999.90;;;27.70;90.30;;;;;;5053805;28;20816;-81
2022/08/24 12:11:14;;;;;;;1162.13;999.90;;;27.70;90.30;;;;;;5050526;28;20461;-80
2022/08/24 12:13:48;;;;;;;1160.37;999.90;;;27.70;90.20;;;;;;5040548;28;20975;-80
2022/08/24 12:16:22;;;;;;;1171.53;999.90;;;27.70;90.00;;;;;;5045769;28;21074;-79
2022/08/24 12:18:59;;;;;;;1179.57;999.90;;;27.70;90.30;;;;;;5051839;28;20519;-81
2022/08/24 12:21:31;;;;;;;1165.83;999.90;;;27.70;90.30;;;;;;5044323;28;20952;-79
2022/08/24 12:24:03;;;;;;;1160.63;999.90;;;27.70;90.30;;;;;;5046143;28;20454;-80
2022/08/24 12:26:35;;;;;;;1167.13;999.90;;;27.70;89.50;;;;;;5048942;28;20510;-79
2022/08/24 12:29:07;;;;;;;1160.90;999.90;;;27.70;89.60;;;;;;5042767;28;20453;-80
2022/08/24 12:31:41;;;;;;;1172.17;999.90;;;27.70;89.20;;;;;;5042762;28;20477;-80